Saint Louis, MO (63145)

4:29 AM CDT on June 20, 2018 (GMT -0500)
Lambert-Saint Louis International | | Change Station

Elev 604 ft 38.75 °N, 90.36 °W | Updated 38 minutes ago

Rain
Rain
72 °F
Feels Like 72 °F
N
7
Wind Variable Wind from West

Today
High -- | Low -- °F
--% Chance of Precip.
Yesterday
High -- | Low -- °F
Precip. -- in
Pressure 29.88 in
Visibility 7.0 miles
Clouds Few 6000 ft
Mostly Cloudy 11000 ft
Overcast 15000 ft
Dew Point 71 °F
Humidity 97%
Rainfall 0.12 in
Snow Depth Not available.
5:36 AM 8:29 PM
Waxing Crescent, 50% visible
METAR KSTL 200851Z 26006KT 7SM RA FEW060 BKN110 OVC150 22/22 A2991 RMK AO2 SLP116 P0009 60012 T02220217 56008
Pressure 29.88 in
Visibility 7.0 miles
Clouds Few 6000 ft
Mostly Cloudy 11000 ft
Overcast 15000 ft
Dew Point 71 °F
Humidity 97%
Rainfall 0.12 in
Snow Depth Not available.
5:36 AM 8:29 PM
Waxing Crescent, 50% visible
METAR KSTL 200851Z 26006KT 7SM RA FEW060 BKN110 OVC150 22/22 A2991 RMK AO2 SLP116 P0009 60012 T02220217 56008

Get Severe Weather Alerts

Thanks for signing up!

Be on the lookout for a verification email in your inbox.

You'll start receiving the daily forecast at 6 AM.

×

10-Day Weather Forecast

Almanac

Astronomy

Jun. 20, 2018 Rise Set
Actual Time
Civil Twilight
Nautical Twilight
Astronomical Twilight
Moon
Length of Visible Light
Length of Day
Tomorrow will be .
, % of the Moon is Illuminated

Today's Extremes

State Highs State Lows

Community

WunderPhotos

Category 6

Welcome to Category 6. This is the collective home for Weather Underground's featured writeups by Dr. Jeff Masters (right), Bob Henson (left), Chris Burt, and other regular contributors.

Nearby

Air Quality

  Air Quality AQ Index Pollutant
Not available.

Snow Depth

Station Depth Elevation

Earthquake Activity

City Distance Mag. Time & Date
Minimum magnitude displayed is 2.5.

Coastal Water Temperatures

Place Temperature

Stations

Nearby Weather Stations

Station Location Temp. Windchill Dew Point Humidity Wind Precip. Elev Updated Type
                   

Watches & Warnings

There are currently no watches in effect.